Date,TemperatureHighF,TemperatureAvgF,TemperatureLowF,DewpointHighF,DewpointAvgF,DewpointLowF,HumidityHigh,HumidityAvg,HumidityLow,PressureMaxIn,PressureMinIn,WindSpeedMaxMPH,WindSpeedAvgMPH,GustSpeedMaxMPH,PrecipitationSumIn
2012-1-1,63,54,43,60,45,29,97,72,52,30.26,30.02,29,9,30,0.02
2012-1-2,43,36,26,29,18,9,65,49,37,30.35,30.17,36,11,36,0.00
2012-1-3,32,25,19,17,14,8,80,63,50,30.55,30.35,28,5,28,0.00
2012-1-4,49,35,19,35,24,13,85,64,35,30.41,30.19,23,4,23,0.00
2012-1-5,59,44,34,41,35,31,97,75,38,30.25,30.12,13,2,13,0.00
2012-1-6,64,48,28,51,41,27,98,81,52,30.17,29.99,19,3,19,0.00
2012-1-7,59,54,50,58,54,50,100,97,89,30.10,29.98,19,4,19,0.54
2012-1-8,58,55,50,58,55,50,100,100,100,30.17,30.09,11,2,11,0.30
2012-1-9,65,58,55,63,58,55,100,99,87,30.15,30.03,15,3,16,0.42
2012-1-10,58,56,54,58,56,54,100,100,100,30.05,29.71,18,3,18,0.14
2012-1-11,60,51,46,59,50,46,100,98,93,29.71,29.50,33,9,33,1.03
2012-1-12,48,39,26,47,38,20,100,94,78,30.01,29.61,35,9,35,0.07
2012-1-13,34,27,23,24,21,18,85,77,65,30.25,30.01,22,6,22,0.00
2012-1-14,53,38,21,32,26,18,92,64,42,30.31,30.06,30,6,30,0.00
2012-1-15,53,40,28,32,28,24,92,64,40,30.48,30.24,18,2,18,0.00
2012-1-16,57,49,40,37,32,27,63,52,38,30.43,30.18,23,6,23,0.00
2012-1-17,62,55,40,61,52,36,99,92,59,30.19,29.89,23,5,26,0.54
2012-1-18,40,33,27,37,28,24,94,82,65,30.26,30.11,16,2,16,0.00
2012-1-19,55,42,26,39,30,25,96,68,41,30.18,29.99,2,0,2,0.00
2012-1-20,63,54,48,63,52,39,100,94,60,30.01,29.87,0,0,0,0.23
2012-1-21,65,54,42,63,53,42,100,98,92,30.05,29.81,0,0,0,0.47
2012-1-22,58,52,45,57,52,45,100,100,97,30.08,29.89,1,0,1,0.02
2012-1-23,68,59,47,63,52,41,100,79,38,30.06,29.80,1,0,6,0.44
2012-1-24,59,47,34,43,39,33,98,75,44,30.26,30.06,0,0,0,0.00
2012-1-25,66,54,37,55,45,35,93,75,55,30.22,29.97,0,0,0,0.00
2012-1-26,62,58,53,62,57,52,100,96,85,29.97,29.62,0,0,0,2.33
2012-1-27,52,45,35,52,41,34,99,86,65,30.07,29.70,0,0,0,0.00
2012-1-28,54,42,31,44,33,21,100,74,42,30.35,30.05,1,0,1,0.01
2012-1-29,52,38,25,33,25,21,95,62,33,30.45,30.34,0,0,0,0.00
2012-1-30,61,45,27,35,28,23,94,54,30,30.43,30.30,0,0,0,0.00
2012-1-31,60,52,36,45,35,26,82,54,41,30.35,30.19,0,0,0,0.00
2012-2-1,56,53,50,55,52,46,100,95,69,30.20,30.02,0,0,0,0.51
2012-2-2,64,54,43,54,45,36,100,73,45,30.28,30.07,0,0,0,0.00
2012-2-3,60,51,39,46,41,35,88,67,53,30.33,30.21,0,0,0,0.01
2012-2-4,66,56,48,61,53,45,100,90,81,30.21,30.00,0,0,0,0.56
2012-2-5,58,53,43,56,51,42,100,94,73,30.16,30.00,0,0,0,0.01
2012-2-6,55,45,37,46,41,36,100,89,70,30.23,30.14,0,0,0,0.01
2012-2-7,57,44,32,41,36,31,99,74,42,30.24,30.14,0,0,0,0.00
2012-2-8,51,45,39,40,37,34,88,75,62,30.29,30.14,0,0,0,0.00
2012-2-9,46,39,32,35,32,28,92,75,59,30.31,30.19,0,0,0,0.00
2012-2-10,48,38,31,38,34,29,97,85,64,30.19,30.00,0,0,0,0.00
2012-2-11,39,29,22,37,21,9,97,71,47,30.48,29.98,0,0,0,0.01
2012-2-12,36,25,18,19,14,10,77,62,44,30.52,30.36,0,0,0,0.00
2012-2-13,47,32,18,34,23,16,94,72,41,30.36,30.04,0,0,0,0.04
2012-2-14,46,41,36,45,40,34,99,96,89,30.13,29.96,0,0,0,0.11
2012-2-15,64,53,36,50,45,35,99,76,53,30.20,30.06,0,0,0,0.05
2012-2-16,62,54,45,56,50,44,100,89,70,30.15,30.01,0,0,0,0.26
2012-2-17,62,49,39,47,43,38,100,80,52,30.17,30.04,0,0,0,0.00
2012-2-18,57,48,35,50,44,34,100,87,64,30.06,29.78,0,0,0,0.24
2012-2-19,49,42,33,48,41,30,99,95,87,30.12,29.71,0,0,0,0.38
2012-2-20,57,42,26,40,34,26,98,75,38,30.25,30.11,0,0,0,0.01
2012-2-21,65,52,44,51,39,31,95,66,33,30.17,29.98,0,0,0,0.06
2012-2-22,67,58,41,59,53,31,99,85,55,29.99,29.56,0,0,0,0.09
2012-2-23,75,67,59,64,61,58,98,82,62,29.63,29.44,0,0,0,0.00
2012-2-24,69,54,38,64,42,26,93,64,37,30.19,29.55,0,0,0,0.01
2012-2-25,52,41,31,32,26,20,85,57,32,30.33,30.19,0,0,0,0.00
2012-2-26,53,46,32,30,27,23,86,49,37,30.40,30.31,0,0,0,0.00
2012-2-27,66,55,44,51,41,28,95,60,39,30.39,30.28,0,0,0,0.00
2012-2-28,66,55,42,59,51,41,100,88,55,30.33,30.11,0,0,0,0.09
2012-2-29,68,63,59,64,62,59,100,96,89,30.12,29.85,0,0,0,0.38
2012-3-1,74,64,52,64,53,41,100,69,38,29.96,29.78,6,0,6,0.01
2012-3-2,76,68,58,67,64,55,100,88,64,29.78,29.56,1,0,1,1.75
2012-3-3,57,48,41,56,35,26,94,61,36,29.91,29.55,0,0,0,0.08
2012-3-4,53,45,34,32,29,26,76,54,38,30.06,29.88,0,0,0,0.00
2012-3-5,52,46,31,35,29,24,88,54,34,30.46,29.96,0,0,0,0.00
2012-3-6,62,48,31,36,30,22,89,50,33,30.52,30.36,0,0,0,0.00
2012-3-7,68,57,45,54,47,33,87,71,54,30.44,30.26,8,0,8,0.00
2012-3-8,75,62,54,63,57,51,99,84,64,30.26,30.04,12,0,12,1.29
2012-3-9,57,49,41,54,40,32,100,73,42,30.37,30.12,9,0,9,0.44
2012-3-10,64,50,35,44,36,28,82,58,43,30.42,30.28,0,0,0,0.00
2012-3-11,67,57,46,56,46,33,78,67,52,30.42,30.22,0,0,0,0.00
2012-3-12,64,61,58,62,59,55,100,93,78,30.25,30.14,0,0,0,0.07
2012-3-13,77,66,60,66,61,58,100,86,55,30.21,30.09,0,0,0,0.08
2012-3-14,78,65,54,69,61,53,100,89,59,30.25,30.13,0,0,0,0.00
2012-3-15,81,68,53,68,61,53,100,81,52,30.25,30.10,0,0,0,0.00
2012-3-16,77,66,57,67,61,55,94,85,61,30.19,30.08,1,0,1,0.01
2012-3-17,80,70,61,66,61,58,96,76,53,30.20,30.07,1,0,1,0.01
2012-3-18,81,69,59,61,57,50,89,67,42,30.23,30.08,0,0,0,0.00
2012-3-19,80,69,54,64,58,52,96,72,49,30.15,30.01,0,0,0,0.00
2012-3-20,82,73,59,65,60,56,92,64,48,30.08,29.95,0,0,0,0.00
2012-3-21,77,69,59,64,60,56,94,74,56,30.11,30.00,0,0,0,0.00
2012-3-22,74,66,62,65,62,61,99,88,68,30.10,30.01,0,0,0,0.18
2012-3-23,74,66,62,69,64,57,100,96,81,30.03,29.84,0,0,0,0.92
2012-3-24,67,57,50,57,52,50,98,84,56,29.91,29.80,0,0,0,0.13
2012-3-25,70,58,47,58,52,47,100,81,57,29.97,29.88,0,0,0,0.01
2012-3-26,76,63,50,62,54,50,100,75,42,30.06,29.95,0,0,0,0.00
2012-3-27,79,64,47,59,53,46,98,68,44,30.17,30.04,0,0,0,0.00
2012-3-28,78,68,59,61,56,53,87,67,46,30.14,29.98,8,0,8,0.00
2012-3-29,78,66,53,65,59,52,99,81,57,30.02,29.89,0,0,0,0.00
2012-3-30,77,66,61,67,62,59,100,88,61,29.95,29.80,0,0,0,0.37
2012-3-31,77,65,55,67,62,55,100,91,68,29.88,29.75,2,0,2,0.25
2012-4-1,81,66,51,67,61,51,100,84,57,29.88,29.75,5,0,5,0.01
2012-4-2,82,69,58,70,65,58,100,86,63,29.88,29.74,0,0,0,0.00
2012-4-3,82,70,57,68,63,57,100,81,55,29.94,29.83,0,0,0,0.00
2012-4-4,79,67,60,66,62,59,99,85,58,29.86,29.68,0,0,0,0.05
2012-4-5,73,63,54,64,59,53,100,90,63,29.74,29.59,0,0,1,0.26
2012-4-6,69,58,49,56,52,45,99,80,48,30.09,29.72,7,0,9,0.00
2012-4-7,71,56,40,57,49,39,98,79,55,30.23,30.08,0,0,0,0.00
2012-4-8,72,61,50,58,53,49,97,77,53,30.20,30.09,0,0,6,0.00
2012-4-9,70,58,42,50,46,40,96,66,37,30.14,30.03,0,0,0,0.00
2012-4-10,71,59,45,59,50,39,96,73,54,30.07,29.98,0,0,0,0.00
2012-4-11,61,52,40,40,35,31,80,54,35,30.16,30.02,0,0,0,0.00
2012-4-12,64,50,32,44,38,30,92,65,43,30.25,30.11,0,0,0,0.00
2012-4-13,72,56,38,50,44,37,98,68,39,30.20,30.11,0,0,0,0.00
2012-4-14,76,65,50,60,53,43,85,66,54,30.22,30.07,0,0,0,0.00
2012-4-15,78,68,58,66,61,55,93,79,64,30.12,30.00,0,0,0,0.00
2012-4-16,73,66,62,68,65,62,100,94,83,30.16,30.00,0,0,0,0.41
2012-4-17,69,62,55,64,60,54,100,94,77,30.17,30.06,0,0,0,0.09
2012-4-18,66,58,53,60,56,52,99,93,79,30.09,30.00,0,0,0,0.03
2012-4-19,73,62,53,61,57,52,100,86,62,30.02,29.90,0,0,0,0.00
2012-4-20,73,63,58,64,61,57,99,92,73,29.92,29.77,0,0,0,0.00
2012-4-21,70,59,51,64,57,48,100,93,76,29.82,29.71,0,0,0,0.07
2012-4-22,62,52,46,49,44,41,93,75,56,29.85,29.72,0,0,0,0.00
2012-4-23,57,49,41,41,36,30,91,63,38,29.94,29.82,0,0,0,0.00
2012-4-24,68,54,38,49,42,34,89,67,47,29.97,29.84,0,0,0,0.00
2012-4-25,79,66,49,66,57,45,87,73,61,29.90,29.78,0,0,0,0.00
2012-4-26,81,70,61,64,60,56,93,72,48,29.92,29.82,0,0,0,0.00
2012-4-27,80,71,64,71,65,60,94,82,68,30.00,29.88,0,0,0,0.00
2012-4-28,80,69,60,67,63,60,100,83,59,30.07,29.96,0,0,0,0.00
2012-4-29,85,71,56,68,63,56,100,79,54,30.09,30.01,0,0,0,0.00
2012-4-30,85,72,57,69,64,56,100,76,53,30.12,30.00,1,0,1,0.00
2012-5-1,87,74,60,70,66,59,98,76,56,30.08,29.95,0,0,0,0.00
2012-5-2,86,76,62,72,67,61,99,77,56,30.08,29.96,1,0,1,0.00
2012-5-3,72,68,64,69,67,64,100,96,84,30.10,29.99,0,0,0,0.34
2012-5-4,82,71,60,72,68,60,100,90,68,30.08,29.94,0,0,0,0.01
2012-5-5,85,74,60,73,69,60,100,86,61,30.00,29.86,0,0,0,0.01
2012-5-6,70,69,68,70,68,65,100,99,88,29.91,29.87,5,0,5,0.00
2012-5-7,81,73,61,70,66,0,98,80,61,29.93,29.77,5,0,6,0.00
2012-5-8,80,70,58,69,65,58,100,86,64,29.90,29.79,0,0,0,0.00
2012-5-9,71,64,56,66,58,0,99,84,59,29.90,29.78,0,0,0,0.29
2012-5-10,73,61,49,56,52,47,98,72,47,29.98,29.86,0,0,0,0.00
2012-5-11,74,62,46,58,52,46,99,74,48,30.10,29.98,0,0,0,0.00
2012-5-12,77,68,61,65,60,55,96,76,63,30.19,30.05,0,0,0,0.02
2012-5-13,66,64,62,66,64,61,100,99,96,30.07,29.91,0,0,0,0.45
2012-5-14,74,66,62,67,64,62,100,94,76,29.96,29.88,0,0,0,0.00
2012-5-15,77,66,60,68,63,59,100,89,66,29.98,29.91,0,0,0,0.01
2012-5-16,80,68,56,65,61,56,100,80,47,30.00,29.89,0,0,0,0.00
2012-5-17,83,68,55,65,59,55,100,78,45,29.98,29.84,0,0,0,0.00
2012-5-18,83,70,57,68,62,56,99,77,51,30.03,29.93,0,0,0,0.00
2012-5-19,82,70,60,69,63,58,98,80,57,30.10,30.00,0,0,0,0.01
2012-5-20,83,71,59,66,61,56,100,74,49,30.12,29.97,0,0,0,0.01
2012-5-21,82,68,59,68,63,58,99,84,56,30.04,29.89,0,0,0,0.14
2012-5-22,76,67,60,66,62,60,100,88,64,29.94,29.81,0,0,0,0.00
2012-5-23,81,68,56,66,60,56,100,77,46,29.88,29.79,0,0,0,0.00
2012-5-24,86,72,53,70,62,53,100,74,44,29.92,29.82,0,0,0,0.00
2012-5-25,89,76,61,73,68,61,99,77,53,30.05,29.90,0,0,0,0.00
2012-5-26,91,78,63,73,68,63,100,76,50,30.11,29.99,0,0,0,0.00
2012-5-27,91,79,64,74,69,63,100,74,50,30.05,29.90,0,0,0,0.00
2012-5-28,89,80,70,71,68,66,89,70,52,29.97,29.83,0,0,0,0.00
2012-5-29,90,78,66,73,69,64,99,76,52,29.89,29.74,0,0,0,0.00
2012-5-30,91,76,60,69,61,49,100,65,24,29.84,29.76,0,0,0,0.00
2012-5-31,84,73,66,70,66,58,96,79,56,29.83,29.69,0,0,0,0.00
2012-6-1,74,66,56,68,60,52,99,81,52,29.90,29.71,0,0,0,0.14
2012-6-2,76,63,50,60,54,48,98,75,54,30.00,29.88,0,0,0,0.00
2012-6-3,83,69,55,75,65,55,99,87,61,29.98,29.83,0,0,0,0.14
2012-6-4,76,70,65,71,68,65,100,94,83,29.92,29.75,0,0,0,0.15
2012-6-5,69,68,67,69,68,67,100,100,99,29.76,29.66,0,0,0,0.01
2012-6-6,80,72,59,65,60,56,98,66,46,29.93,29.77,0,0,0,0.01
2012-6-7,82,70,59,69,62,56,98,78,55,29.99,29.91,0,0,0,0.02
2012-6-8,83,73,59,70,63,57,96,72,51,30.02,29.91,0,0,0,0.01
2012-6-9,82,73,62,66,62,58,96,70,46,30.01,29.90,0,0,0,0.00
2012-6-10,72,69,65,72,68,64,100,99,80,29.98,29.91,0,0,0,0.06
2012-6-11,82,73,68,76,71,67,100,94,78,30.00,29.83,0,0,0,0.34
2012-6-12,81,73,64,73,68,64,100,87,70,30.00,29.89,0,0,0,0.00
2012-6-13,85,77,66,70,68,64,99,75,54,29.98,29.88,0,0,0,0.00
2012-6-14,88,74,62,76,69,61,98,85,60,30.01,29.91,0,0,0,0.00
2012-6-15,85,75,68,72,69,66,95,82,62,30.10,29.96,0,0,0,0.00
2012-6-16,72,70,70,68,66,66,86,85,84,30.10,30.08,0,0,0,0.00
2012-6-17,84,74,64,66,64,61,92,74,48,30.11,29.94,0,0,0,0.00
2012-6-18,86,75,61,71,64,59,97,70,48,30.03,29.93,0,0,0,0.00
2012-6-19,87,75,60,70,64,59,98,71,50,30.11,30.01,0,0,0,0.00
2012-6-20,87,76,61,70,66,60,97,73,54,30.12,29.99,0,0,0,0.00
2012-6-21,90,77,63,72,68,62,99,75,53,30.05,29.87,0,0,0,0.00
2012-6-22,91,80,67,73,69,66,98,72,48,29.91,29.81,0,0,0,0.00
2012-6-23,94,81,68,74,69,64,96,69,39,29.90,29.83,0,0,0,0.00
2012-6-24,93,82,67,76,71,66,98,72,48,29.91,29.78,0,0,0,0.00
2012-6-25,94,82,68,75,70,65,98,71,45,29.81,29.64,0,0,0,0.00
2012-6-26,90,78,65,70,60,46,76,56,25,29.83,29.68,0,0,0,0.00
2012-6-27,91,75,56,65,59,52,90,59,29,29.98,29.82,0,0,0,0.00
2012-6-28,100,82,60,72,65,58,96,62,34,30.02,29.91,0,0,0,0.00
2012-6-29,102,85,68,73,67,58,88,57,24,29.95,29.79,0,0,0,0.00
2012-6-30,102,88,72,75,71,67,87,58,37,29.88,29.80,0,0,0,0.00
2012-7-1,102,87,74,76,71,67,87,62,38,29.98,29.84,1,0,1,0.00
2012-7-2,92,80,74,73,70,68,87,73,50,30.09,29.93,14,0,15,0.00
2012-7-3,98,84,69,75,69,60,94,64,35,30.01,29.86,14,0,14,0.00
2012-7-4,94,81,69,75,71,67,95,72,48,30.01,29.90,2,0,2,0.00
2012-7-5,97,82,69,76,72,67,95,73,45,30.06,29.84,22,0,22,0.23
2012-7-6,96,81,69,77,72,68,100,77,48,29.98,29.84,0,0,0,0.00
2012-7-7,93,81,71,78,73,70,97,78,58,30.00,29.88,0,0,0,0.00
2012-7-8,92,81,73,77,74,71,95,80,55,30.01,29.86,0,0,0,0.11
2012-7-9,92,78,71,76,74,71,100,87,56,29.97,29.83,5,0,5,0.07
2012-7-10,92,77,70,75,72,69,100,86,48,29.99,29.86,0,0,0,0.83
2012-7-11,81,73,68,74,70,68,100,94,75,30.03,29.92,0,0,0,0.45
2012-7-12,76,71,68,74,70,68,100,99,89,30.03,29.96,0,0,0,0.44
2012-7-13,88,77,68,75,71,68,100,85,58,30.07,29.97,0,0,0,0.02
2012-7-14,87,78,71,78,73,71,100,86,61,30.10,29.99,0,0,0,0.13
2012-7-15,90,79,71,78,74,70,100,86,63,30.14,30.01,0,0,0,0.00
2012-7-16,90,77,70,80,74,70,100,91,67,30.06,29.94,0,0,0,0.17
2012-7-17,90,80,70,79,75,70,100,86,63,30.01,29.88,0,0,0,0.01
2012-7-18,88,74,69,78,72,68,100,94,70,30.02,29.92,1,0,1,1.45
2012-7-19,88,78,69,79,74,69,100,90,68,30.05,29.90,0,0,0,0.00
2012-7-20,86,79,73,80,76,73,100,92,76,29.97,29.87,0,0,0,0.19
2012-7-21,87,78,72,78,75,71,100,91,71,30.04,29.90,0,0,0,0.41
2012-7-22,88,79,70,77,73,70,100,84,63,30.13,30.03,0,0,0,0.00
2012-7-23,91,81,70,79,75,70,100,84,63,30.16,30.03,0,0,0,0.00
2012-7-24,90,81,71,79,75,71,100,84,65,30.07,29.92,0,0,1,0.00
2012-7-25,92,82,73,78,75,72,99,82,60,29.99,29.86,0,0,0,0.00
2012-7-26,92,82,72,79,75,71,99,81,60,29.93,29.80,0,0,0,0.00
2012-7-27,88,78,71,80,75,70,99,89,68,29.96,29.86,0,0,0,0.00
2012-7-28,92,79,70,79,74,70,100,86,62,30.05,29.91,0,0,0,0.01
2012-7-29,86,78,66,74,71,66,100,81,56,30.02,29.91,0,0,0,0.00
2012-7-30,91,79,66,77,72,66,100,81,61,30.00,29.84,0,0,0,0.03
2012-7-31,87,79,71,79,76,71,100,88,75,29.91,29.81,1,0,1,0.77
2012-8-1,94,83,75,80,77,71,100,84,59,29.91,29.79,0,0,0,0.01
2012-8-2,92,79,69,79,73,68,99,83,60,29.89,29.82,0,0,0,0.00
2012-8-3,84,78,72,79,75,71,100,93,83,29.94,29.84,0,0,0,0.00
2012-8-4,90,79,71,79,74,71,100,87,65,30.06,29.92,0,0,0,0.00
2012-8-5,89,79,71,78,74,70,100,85,63,30.14,29.99,0,0,0,0.00
2012-8-6,87,77,71,78,74,71,99,91,69,30.06,29.92,0,0,0,0.56
2012-8-7,88,77,70,79,74,70,100,92,68,29.97,29.86,0,0,0,0.68
2012-8-8,90,79,70,79,75,70,100,89,63,30.00,29.87,0,0,0,0.00
2012-8-9,82,75,70,78,74,70,100,95,78,29.92,29.77,0,0,0,1.31
2012-8-10,84,74,68,78,72,68,100,94,79,29.84,29.75,0,0,0,0.10
2012-8-11,82,72,63,70,66,60,100,82,57,29.97,29.80,0,0,0,0.01
2012-8-12,81,63,56,66,60,55,100,90,54,30.03,29.94,0,0,0,0.00
2012-8-13,80,68,57,71,66,57,100,93,71,30.01,29.90,1,0,1,0.38
2012-8-14,86,77,68,76,73,68,100,86,63,29.94,29.82,1,0,1,0.51
2012-8-15,83,74,66,74,71,66,100,89,66,29.98,29.86,0,0,0,0.00
2012-8-16,89,76,66,76,71,66,100,86,62,30.02,29.87,5,0,5,0.01
2012-8-17,80,73,67,73,70,66,99,90,77,29.97,29.86,1,0,1,0.01
2012-8-18,82,73,70,73,71,69,100,92,73,29.91,29.80,6,0,6,0.06
2012-8-19,80,71,66,72,69,65,100,92,67,29.87,29.80,6,0,6,0.03
2012-8-20,82,70,59,67,62,59,100,78,46,29.94,29.86,1,0,1,0.01
2012-8-21,82,70,58,68,61,55,99,76,41,30.02,29.93,0,0,1,0.00
2012-8-22,83,71,58,66,62,57,99,75,48,30.09,30.01,1,0,1,0.00
2012-8-23,86,72,58,68,63,58,100,77,50,30.11,30.01,1,0,1,0.00
2012-8-24,87,74,59,72,66,59,100,78,49,30.09,29.98,0,0,0,0.00
2012-8-25,83,75,68,73,69,66,98,84,67,30.09,30.01,0,0,0,0.00
2012-8-26,88,75,62,73,67,62,100,79,49,30.13,30.00,0,0,0,0.00
2012-8-27,89,76,63,73,69,63,100,81,55,30.08,29.90,0,0,0,0.00
2012-8-28,78,73,66,75,71,65,98,94,89,29.96,29.87,0,0,0,0.01
2012-8-29,85,78,73,76,74,72,100,88,72,29.95,29.85,0,0,0,0.00
2012-8-30,79,76,73,75,74,72,98,93,86,30.07,29.86,0,0,0,0.00
2012-8-31,86,79,74,77,75,74,100,89,73,30.15,30.05,0,0,0,0.02
2012-9-1,86,77,73,77,74,72,98,90,70,30.14,30.00,0,0,0,0.00
2012-9-2,86,77,69,77,73,68,100,90,75,30.01,29.84,0,0,0,1.23
2012-9-3,78,72,69,76,72,68,100,98,90,29.93,29.81,0,0,0,1.16
2012-9-4,81,76,72,78,74,72,100,97,88,29.88,29.81,0,0,0,0.04
2012-9-5,86,78,73,76,75,72,100,90,71,29.90,29.80,0,0,0,0.04
2012-9-6,88,76,69,77,72,69,100,90,68,29.95,29.82,0,0,0,0.08
2012-9-7,90,77,66,78,72,66,100,86,59,29.95,29.75,0,0,0,0.00
2012-9-8,76,71,61,74,69,59,100,94,84,29.92,29.74,0,0,0,0.02
2012-9-9,77,65,54,62,58,53,99,80,53,30.03,29.89,0,0,0,0.01
2012-9-10,80,65,53,64,58,53,100,82,53,30.11,30.01,0,0,0,0.00
2012-9-11,80,67,56,66,60,55,100,83,55,30.20,30.08,0,0,0,0.00
2012-9-12,65,62,60,62,60,59,97,94,90,30.25,30.17,0,0,0,0.00
2012-9-13,79,69,60,65,62,58,95,79,61,30.27,30.15,0,0,0,0.00
2012-9-14,71,62,55,68,61,55,100,97,90,30.21,30.18,0,0,0,0.00
2012-9-15,71,62,57,67,61,57,100,98,87,30.18,30.13,0,0,0,0.00
2012-9-16,65,64,63,65,63,62,100,99,96,30.06,30.02,0,0,0,0.00
2012-9-17,71,69,68,69,68,67,98,96,90,29.97,29.90,0,0,0,0.00
2012-9-18,74,67,60,70,66,59,100,96,80,29.93,29.66,0,0,0,0.77
2012-9-19,56,52,48,53,49,46,92,89,87,30.06,29.98,0,0,0,0.00
2012-9-20,53,50,48,53,50,48,100,99,97,30.10,30.05,0,0,0,0.00
2012-9-21,80,72,52,65,61,52,100,70,51,30.06,29.92,0,0,0,0.00
2012-9-22,64,61,58,64,60,57,100,96,92,30.01,29.95,0,0,0,0.00
2012-9-23,57,52,48,53,51,48,100,96,87,30.15,30.06,0,0,0,0.00
2012-9-24,73,57,43,55,50,42,97,80,47,30.23,30.10,0,0,0,0.00
2012-9-25,78,63,49,62,55,48,97,76,51,30.18,30.08,0,0,0,0.00
2012-9-26,71,61,56,64,58,54,97,89,81,30.16,30.09,0,0,0,0.00
2012-9-27,85,72,59,72,65,58,99,80,47,30.16,30.04,0,0,0,0.00
2012-9-28,72,64,60,69,63,60,100,98,89,30.09,30.04,0,0,0,0.00
2012-9-29,78,68,61,71,65,59,100,92,75,29.98,29.87,0,0,0,0.00
2012-9-30,61,57,56,59,56,55,99,97,94,29.89,29.84,0,0,0,0.00
2012-10-1,79,72,64,74,70,64,100,93,82,29.67,29.47,0,0,0,0.36
2012-10-2,66,62,53,64,60,53,100,96,91,29.98,29.59,0,0,0,0.06
2012-10-3,72,59,49,64,56,49,100,91,68,30.17,29.98,0,0,0,0.00
2012-10-4,78,63,50,64,58,50,100,85,57,30.26,30.16,0,0,0,0.00
2012-10-5,80,65,52,67,60,52,100,85,56,30.18,29.98,0,0,0,0.00
2012-10-6,64,57,52,63,56,51,100,97,92,30.06,29.94,0,0,0,0.05
2012-10-7,56,51,47,51,47,43,96,86,62,30.16,30.01,0,0,0,0.00
2012-10-8,55,50,47,51,48,44,98,91,79,30.19,30.06,0,0,0,0.08
2012-10-9,67,54,43,55,50,43,100,88,61,30.15,30.01,0,0,0,0.00
2012-10-10,70,58,46,62,54,45,100,90,72,30.18,30.03,0,0,0,0.00
2012-10-11,71,57,42,59,52,42,100,85,56,30.28,30.17,0,0,0,0.00
2012-10-12,70,63,57,67,62,56,100,96,88,30.29,30.16,0,0,0,0.10
2012-10-13,76,67,60,67,63,58,100,87,72,30.27,30.13,0,0,0,0.00
2012-10-14,73,66,61,68,63,58,97,90,82,30.17,29.88,0,0,0,0.00
2012-10-15,71,64,48,67,57,46,100,81,47,29.96,29.87,0,0,0,0.02
2012-10-16,71,56,41,55,49,41,100,81,42,30.01,29.86,0,0,0,0.00
2012-10-17,73,60,47,57,51,47,99,75,47,29.90,29.67,0,0,0,0.00
2012-10-18,72,62,50,64,54,44,100,78,41,29.82,29.67,0,0,0,0.45
2012-10-19,67,54,47,47,43,39,86,68,37,29.81,29.73,0,0,0,0.00
2012-10-20,65,53,43,51,47,42,97,80,60,29.99,29.82,0,0,0,0.00
2012-10-21,74,61,40,58,52,39,100,75,51,30.15,29.99,8,0,8,0.00
2012-10-22,77,60,48,60,53,47,99,81,50,30.21,30.08,5,0,5,0.00
2012-10-23,77,62,47,59,54,46,100,78,50,30.17,30.05,8,0,8,0.00
2012-10-24,77,61,46,62,55,46,100,84,57,30.16,30.03,0,0,1,0.00
2012-10-25,78,67,52,65,61,52,100,80,60,30.07,29.98,12,0,12,0.00
2012-10-26,78,65,51,68,61,50,99,87,67,30.02,29.88,14,0,14,0.00
2012-10-27,54,49,47,50,47,45,98,93,83,29.99,29.88,21,1,21,0.00
2012-10-28,54,49,46,46,44,37,97,82,58,29.96,29.86,33,4,33,0.00
2012-10-29,51,47,38,36,30,0,84,52,46,30.03,29.87,1,0,9,0.00
2012-10-30,53,45,40,33,31,29,72,60,41,29.87,29.78,4,0,4,0.00
2012-10-31,61,48,34,38,34,30,89,59,33,29.94,29.85,0,0,0,0.00
2012-11-1,60,46,36,37,32,28,80,59,32,30.03,29.92,0,0,0,0.00
2012-11-2,73,55,38,56,45,36,95,71,49,30.01,29.91,0,0,0,0.00
2012-11-3,79,60,41,61,52,40,98,76,54,30.09,29.94,0,0,0,0.00
2012-11-4,66,54,45,58,46,41,99,77,58,30.09,29.95,0,0,0,0.02
2012-11-5,58,46,34,46,40,33,99,83,54,30.12,29.95,0,0,0,0.15
2012-11-6,47,45,44,46,44,43,98,97,96,29.99,29.93,0,0,0,0.23
2012-11-7,51,45,39,46,42,39,100,90,76,30.10,29.89,0,0,0,0.05
2012-11-8,61,45,34,49,40,34,100,84,49,30.24,30.10,11,1,11,0.03
2012-11-9,68,48,31,47,38,31,97,73,28,30.32,30.18,9,1,9,0.00
2012-11-10,69,53,37,47,41,36,97,66,37,30.33,30.22,12,2,12,0.00
2012-11-11,69,59,47,52,46,38,72,63,53,30.34,30.15,21,4,21,0.00
2012-11-12,63,54,37,60,50,34,96,88,71,30.37,30.11,21,6,21,0.85
2012-11-13,54,42,33,34,29,26,90,64,36,30.43,30.31,21,6,21,0.00
2012-11-14,52,45,32,42,36,29,92,72,55,30.36,30.24,14,2,21,0.00
2012-11-15,59,48,39,44,40,36,91,72,48,30.30,30.20,11,2,11,0.00
2012-11-16,60,42,33,40,33,28,96,75,36,30.33,30.25,6,0,11,0.00
2012-11-17,62,46,31,39,34,29,95,66,32,30.43,30.31,20,2,20,0.00
2012-11-18,64,48,34,44,36,29,91,65,40,30.42,30.28,15,2,15,0.00
2012-11-19,65,49,35,47,40,33,94,75,46,30.33,30.17,12,1,12,0.00
2012-11-20,66,54,41,49,44,39,97,71,44,30.20,30.07,11,1,11,0.00
2012-11-21,69,57,44,51,47,42,94,70,44,30.16,30.07,13,2,14,0.00
2012-11-22,70,54,37,50,44,36,98,72,39,30.24,30.13,9,1,9,0.00
2012-11-23,65,51,42,52,45,34,96,79,61,30.16,30.08,16,4,16,0.00
2012-11-24,45,38,30,34,26,22,80,63,41,30.26,30.15,16,4,16,0.00
2012-11-25,58,40,24,32,24,19,92,59,22,30.20,30.07,11,1,11,0.00
2012-11-26,64,49,31,47,36,26,89,63,34,30.20,30.07,12,2,12,0.00
2012-11-27,57,48,41,53,45,36,97,87,62,30.29,30.05,15,4,15,0.03
2012-11-28,53,42,33,37,33,25,93,73,34,30.43,30.29,13,4,13,0.00
2012-11-29,61,41,26,36,31,25,94,70,27,30.43,30.30,5,1,10,0.00
2012-11-30,64,49,35,51,43,31,96,81,61,30.35,30.22,11,1,12,0.00
2012-12-1,68,51,41,53,46,40,98,83,50,30.32,30.22,13,2,14,0.00
2012-12-2,71,60,50,55,50,46,86,70,53,30.32,30.19,19,4,19,0.00
2012-12-3,71,62,45,57,52,44,97,72,52,30.26,30.16,8,3,16,0.00
2012-12-4,70,62,57,61,56,52,97,80,64,30.26,30.12,18,4,18,0.02
2012-12-5,62,58,52,60,55,45,98,93,74,30.20,30.08,15,2,15,0.53
2012-12-6,66,57,51,56,50,44,92,76,64,30.11,29.99,20,4,20,0.00
2012-12-7,64,57,50,55,51,45,84,80,71,30.05,29.91,13,3,13,0.00
2012-12-8,64,60,56,61,58,52,97,93,82,29.99,29.91,12,3,12,0.00
2012-12-9,67,63,60,60,58,56,98,86,71,30.01,29.82,21,5,21,0.00
2012-12-10,65,55,40,62,53,36,98,93,81,29.93,29.64,23,6,23,1.96
2012-12-11,41,36,33,36,32,30,92,84,72,30.20,29.92,16,5,16,0.00
2012-12-12,51,41,33,35,30,25,87,67,45,30.28,30.18,16,4,16,0.00
2012-12-13,56,36,30,40,30,27,90,79,48,30.38,30.28,5,1,10,0.00
2012-12-14,58,47,30,42,37,29,96,70,50,30.36,30.14,10,2,13,0.00
2012-12-15,61,54,48,53,47,40,84,77,67,30.16,29.94,20,5,20,0.00
2012-12-16,60,58,55,59,56,52,98,94,83,29.95,29.74,20,5,20,1.23
2012-12-17,58,56,55,57,55,54,98,97,95,29.80,29.72,16,6,16,0.13
2012-12-18,59,48,39,50,40,36,96,75,43,29.99,29.74,10,3,22,0.00
2012-12-19,67,58,37,49,43,35,96,59,34,30.07,29.94,12,3,12,0.00
2012-12-20,56,49,37,56,41,24,98,74,57,29.99,29.63,34,11,35,0.48
2012-12-21,44,36,32,24,21,16,66,55,38,30.27,29.97,32,11,32,0.00
2012-12-22,52,38,28,25,18,7,77,46,20,30.36,30.19,14,3,16,0.00
2012-12-23,56,45,29,45,31,24,94,62,33,30.19,29.93,19,4,19,0.30
2012-12-24,64,53,43,58,50,42,98,92,69,29.94,29.78,19,4,19,0.44
2012-12-25,51,45,40,50,45,39,99,99,97,29.99,29.70,25,4,25,0.22
2012-12-26,53,39,33,53,36,30,97,91,85,30.09,29.42,19,12,37,0.04
2012-12-27,38,33,28,32,30,27,97,88,76,30.17,30.08,9,4,19,0.00
2012-12-28,44,36,28,36,32,27,97,86,72,30.11,29.94,6,2,8,0.00
2012-12-29,42,35,32,41,31,26,98,86,79,30.34,29.78,25,9,25,0.05
2012-12-30,44,32,27,28,25,23,86,76,50,30.51,30.34,16,6,16,0.00
2012-12-31,48,44,30,39,33,26,89,64,50,30.38,30.05,18,4,18,0.00
2013-1-1,51,48,41,51,46,39,99,92,74,30.08,29.93,21,3,21,1.79